createdAt,value
2022-12-25T00:07:46.388Z,8.05
2022-12-25T00:27:46.334Z,8.52
2022-12-25T00:47:46.330Z,8.71
2022-12-25T01:27:46.254Z,8.86
2022-12-25T01:47:46.223Z,8.94
2022-12-25T02:07:46.210Z,9
2022-12-25T02:27:46.172Z,9.04
2022-12-25T02:47:46.133Z,9.27
2022-12-25T03:47:46.080Z,9.09
2022-12-25T04:07:46.035Z,9
2022-12-25T05:27:50.252Z,8.8
2022-12-25T06:07:45.880Z,8.7
2022-12-25T06:27:45.846Z,8.69
2022-12-25T06:47:45.830Z,8.7
2022-12-25T07:07:45.797Z,8.79
2022-12-25T07:27:45.794Z,8.71
2022-12-25T07:47:45.736Z,8.69
2022-12-25T08:07:45.747Z,8.71
2022-12-25T08:47:45.682Z,8.41
2022-12-25T09:07:45.668Z,8.47
2022-12-25T09:27:45.619Z,8.78
2022-12-25T09:47:45.582Z,9.21
2022-12-25T10:27:45.529Z,9.38
2022-12-25T11:27:48.979Z,9.76
2022-12-25T11:47:45.419Z,9.88
2022-12-25T12:07:45.392Z,9.93
2022-12-25T12:27:45.362Z,9.91
2022-12-25T13:07:45.311Z,10.07
2022-12-25T13:27:45.293Z,10.04
2022-12-25T13:47:47.559Z,9.98
2022-12-25T14:07:45.227Z,9.92
2022-12-25T14:27:45.209Z,9.84
2022-12-25T14:47:45.172Z,9.83
2022-12-25T15:27:45.143Z,9.85
2022-12-25T15:47:45.260Z,9.93
2022-12-25T16:07:45.057Z,10.03
2022-12-25T16:47:45.026Z,10.32
2022-12-25T17:07:44.987Z,10.63
2022-12-25T17:27:44.937Z,10.84
2022-12-25T17:47:44.944Z,10.94
2022-12-25T18:07:44.880Z,11.47
2022-12-25T18:27:44.868Z,12.19
2022-12-25T18:47:44.824Z,11.95
2022-12-25T19:27:44.782Z,11.65
2022-12-25T19:47:44.727Z,11.25
2022-12-25T20:07:44.705Z,10.9
2022-12-25T20:27:44.683Z,10.91
2022-12-25T20:47:44.652Z,10.94
2022-12-25T21:07:44.629Z,11.1
2022-12-25T21:27:44.603Z,11.24
2022-12-25T21:48:00.464Z,11.24
2022-12-25T22:07:44.557Z,11.06
2022-12-25T22:27:44.500Z,10.91
2022-12-25T23:07:44.469Z,11.04
2022-12-25T23:27:44.419Z,11.09
2022-12-25T23:47:44.389Z,11.01
